Tubul — A8VP8 — position and weather

sailwx.info

Track history (hours):
 
Tides and Currents Weather Stations Pressure Air Temp Water Temp Dewpoint Dewpoint Depression Visibility Wind Speed Wind Dir Waves Ship Positions

Tubul

Last reported at 2015-May-22 09:31 UTC. Time now 2015-May-30 08:24 UTC.
Position S 24°31' W 045°58'.

Length 300 m; draft 9.6 m.

Type: Ship. MMSI: 636014647.

Date/timePositionNaut miles runAvg speedWind from/ knotsBaromVisibWave heightAir tempDewpointWater temp
2015-May-22 09:31S 24°31' W 045°58'1111.8
2015-May-22 08:33S 24°24' W 045°47'1211.8
2015-May-22 07:33S 24°17' W 045°37'1211.9
2015-May-22 06:33S 24°10' W 045°27'10 0.2
2015-May-20 15:31S 24°15' W 045°35'1010.4
2015-May-20 14:33S 24°15' W 045°47'1010.2
2015-May-20 13:33S 24°15' W 045°58'1010.3
2015-May-20 12:33S 24°15' W 046°09'1110.6
2015-May-20 11:33S 24°16' W 046°21'9 8.8
2015-May-20 10:34S 24°08' W 046°22'9 9.5
2015-May-20 09:34S 23°59' W 046°17'1 0.9
2015-May-20 08:33S 23°58' W 046°18'0 0.0
2015-May-20 07:33S 23°58' W 046°18'0 0.0
2015-May-20 06:33S 23°58' W 046°18'0 0.0
2015-May-20 05:33S 23°58' W 046°18'0 0.0
2015-May-20 04:33S 23°58' W 046°18'0 0.0
2015-May-20 03:33S 23°58' W 046°18'0 0.0
2015-May-20 02:33S 23°58' W 046°18'0 0.0
2015-May-20 01:24S 23°58' W 046°18'0 0.0
2015-May-20 00:30S 23°58' W 046°18'0 0.0
2015-May-19 23:33S 23°58' W 046°18'0 0.0
2015-May-19 22:33S 23°58' W 046°18'0 0.0
2015-May-19 21:30S 23°58' W 046°18'0 0.0
2015-May-19 20:33S 23°58' W 046°18'0 0.0
2015-May-19 19:33S 23°58' W 046°18'0 0.0
2015-May-19 18:33S 23°58' W 046°18'0 0.0
2015-May-19 17:30S 23°58' W 046°18'0 0.0
2015-May-19 16:33S 23°58' W 046°18'0 0.2
2015-May-19 15:33S 23°58' W 046°17'8 7.9
2015-May-19 14:33S 24°05' W 046°22'8 8.2
2015-May-19 13:33S 24°13' W 046°22'7 6.8
2015-May-19 12:33S 24°20' W 046°20'1413.8
2015-May-19 11:33S 24°24' W 046°06'1515.2
2015-May-19 10:33S 24°27' W 045°49'  
Track history (hours):
 
Tides and Currents Weather Stations Pressure Air Temp Water Temp Dewpoint Dewpoint Depression Visibility Wind Speed Wind Dir Waves Ship Positions

Tubul

Last reported at 2015-May-22 09:31 UTC. Time now 2015-May-30 08:24 UTC.
Position S 24°31' W 045°58'.

Length 300 m; draft 9.6 m.

Type: Ship. MMSI: 636014647.

Date/timePositionNaut miles runAvg speedWind from/ knotsBaromVisibWave heightAir tempDewpointWater temp
2015-May-22 09:31S 24°31' W 045°58'1111.8
2015-May-22 08:33S 24°24' W 045°47'1211.8
2015-May-22 07:33S 24°17' W 045°37'1211.9
2015-May-22 06:33S 24°10' W 045°27'10 0.2
2015-May-20 15:31S 24°15' W 045°35'1010.4
2015-May-20 14:33S 24°15' W 045°47'1010.2
2015-May-20 13:33S 24°15' W 045°58'1010.3
2015-May-20 12:33S 24°15' W 046°09'1110.6
2015-May-20 11:33S 24°16' W 046°21'9 8.8
2015-May-20 10:34S 24°08' W 046°22'9 9.5
2015-May-20 09:34S 23°59' W 046°17'1 0.9
2015-May-20 08:33S 23°58' W 046°18'0 0.0
2015-May-20 07:33S 23°58' W 046°18'0 0.0
2015-May-20 06:33S 23°58' W 046°18'0 0.0
2015-May-20 05:33S 23°58' W 046°18'0 0.0
2015-May-20 04:33S 23°58' W 046°18'0 0.0
2015-May-20 03:33S 23°58' W 046°18'0 0.0
2015-May-20 02:33S 23°58' W 046°18'0 0.0
2015-May-20 01:24S 23°58' W 046°18'0 0.0
2015-May-20 00:30S 23°58' W 046°18'0 0.0
2015-May-19 23:33S 23°58' W 046°18'0 0.0
2015-May-19 22:33S 23°58' W 046°18'0 0.0
2015-May-19 21:30S 23°58' W 046°18'0 0.0
2015-May-19 20:33S 23°58' W 046°18'0 0.0
2015-May-19 19:33S 23°58' W 046°18'0 0.0
2015-May-19 18:33S 23°58' W 046°18'0 0.0
2015-May-19 17:30S 23°58' W 046°18'0 0.0
2015-May-19 16:33S 23°58' W 046°18'0 0.2
2015-May-19 15:33S 23°58' W 046°17'8 7.9
2015-May-19 14:33S 24°05' W 046°22'8 8.2
2015-May-19 13:33S 24°13' W 046°22'7 6.8
2015-May-19 12:33S 24°20' W 046°20'1413.8
2015-May-19 11:33S 24°24' W 046°06'1515.2
2015-May-19 10:33S 24°27' W 045°49'  

Dump ship's entire track history